createdAt,value
2023-04-28T00:00:15.575Z,1004.97
2023-04-28T00:01:15.453Z,1005.02
2023-04-28T00:02:15.442Z,1005.02
2023-04-28T00:03:15.557Z,1005.00
2023-04-28T00:04:15.692Z,1004.97
2023-04-28T00:05:15.600Z,1004.92
2023-04-28T00:06:15.336Z,1004.94
2023-04-28T00:07:15.296Z,1004.89
2023-04-28T00:08:15.279Z,1004.89
2023-04-28T00:09:15.284Z,1004.84
2023-04-28T00:10:15.292Z,1004.85
2023-04-28T00:11:15.214Z,1004.80
2023-04-28T00:12:15.217Z,1004.75
2023-04-28T00:13:15.146Z,1004.84
2023-04-28T00:14:15.446Z,1004.78
2023-04-28T00:15:15.175Z,1004.82
2023-04-28T00:16:15.140Z,1004.80
2023-04-28T00:17:15.085Z,1004.73
2023-04-28T00:18:15.109Z,1004.75
2023-04-28T00:19:14.994Z,1004.74
2023-04-28T00:20:15.021Z,1004.72
2023-04-28T00:21:14.974Z,1004.74
2023-04-28T00:22:14.926Z,1004.73
2023-04-28T00:23:14.963Z,1004.68
2023-04-28T00:24:15.262Z,1004.70
2023-04-28T00:25:14.939Z,1004.70
2023-04-28T00:26:14.808Z,1004.63
2023-04-28T00:27:14.777Z,1004.64
2023-04-28T00:28:26.880Z,1004.58
2023-04-28T00:29:15.765Z,1004.57
2023-04-28T00:30:14.737Z,1004.63
2023-04-28T00:31:14.783Z,1004.56
2023-04-28T00:32:14.689Z,1004.49
2023-04-28T00:33:14.720Z,1004.51
2023-04-28T00:34:14.876Z,1004.42
2023-04-28T00:35:14.616Z,1004.41
2023-04-28T00:36:14.612Z,1004.42
2023-04-28T00:37:14.635Z,1004.44
2023-04-28T00:38:14.559Z,1004.43
2023-04-28T00:39:14.581Z,1004.42
2023-04-28T00:40:14.509Z,1004.39
2023-04-28T00:41:14.497Z,1004.37
2023-04-28T00:42:14.491Z,1004.35
2023-04-28T00:43:14.490Z,1004.27
2023-04-28T00:44:14.743Z,1004.30
2023-04-28T00:45:14.408Z,1004.29
2023-04-28T00:46:14.512Z,1004.27
2023-04-28T00:47:14.375Z,1004.26
2023-04-28T00:48:14.413Z,1004.25
2023-04-28T00:49:14.379Z,1004.24
2023-04-28T00:50:14.311Z,1004.26
2023-04-28T00:51:14.288Z,1004.28
2023-04-28T00:52:14.248Z,1004.25
2023-04-28T00:53:14.477Z,1004.20
2023-04-28T00:54:14.544Z,1004.23
2023-04-28T00:55:14.184Z,1004.24
2023-04-28T00:56:14.170Z,1004.21
2023-04-28T00:57:14.142Z,1004.23
2023-04-28T00:58:14.176Z,1004.21
2023-04-28T00:59:14.158Z,1004.22
2023-04-28T01:00:14.079Z,1004.19
2023-04-28T01:01:14.052Z,1004.18
2023-04-28T01:02:14.068Z,1004.17
2023-04-28T01:03:14.188Z,1004.20
2023-04-28T01:04:14.279Z,1004.17
2023-04-28T01:05:13.984Z,1004.16
2023-04-28T01:06:13.959Z,1004.14
2023-04-28T01:07:13.918Z,1004.11
2023-04-28T01:08:13.966Z,1004.06
2023-04-28T01:09:13.887Z,1004.07
2023-04-28T01:10:13.904Z,1004.09
2023-04-28T01:11:13.868Z,1004.02
2023-04-28T01:12:13.838Z,1004.04
2023-04-28T01:13:13.880Z,1003.97
2023-04-28T01:14:13.883Z,1004.06
2023-04-28T01:15:13.828Z,1004.05
2023-04-28T01:16:13.781Z,1004.04
2023-04-28T01:17:13.709Z,1004.05
2023-04-28T01:18:13.772Z,1004.05
2023-04-28T01:19:13.647Z,1004.01
2023-04-28T01:20:13.690Z,1003.94
2023-04-28T01:21:13.620Z,1003.94
2023-04-28T01:22:13.593Z,1003.95
2023-04-28T01:23:13.567Z,1003.87
2023-04-28T01:24:13.650Z,1003.94
2023-04-28T01:25:13.625Z,1003.88
2023-04-28T01:26:13.545Z,1003.80
2023-04-28T01:27:13.489Z,1003.83
2023-04-28T01:28:13.484Z,1003.84
2023-04-28T01:29:13.492Z,1003.85
2023-04-28T01:30:13.521Z,1003.82
2023-04-28T01:31:13.439Z,1003.84
2023-04-28T01:32:13.395Z,1003.84
2023-04-28T01:33:13.360Z,1003.83
2023-04-28T01:34:13.434Z,1003.87
2023-04-28T01:35:13.402Z,1003.84
2023-04-28T01:36:13.313Z,1003.87
2023-04-28T01:37:13.250Z,1003.87
2023-04-28T01:38:13.229Z,1003.87
2023-04-28T01:39:13.232Z,1003.81
2023-04-28T01:40:13.244Z,1003.75
2023-04-28T01:41:13.200Z,1003.78
2023-04-28T01:42:13.179Z,1003.69
2023-04-28T01:43:13.119Z,1003.67
2023-04-28T01:44:13.164Z,1003.63
2023-04-28T01:45:13.129Z,1003.60
2023-04-28T01:46:13.088Z,1003.59
2023-04-28T01:47:13.055Z,1003.58
2023-04-28T01:48:13.050Z,1003.58
2023-04-28T01:49:12.982Z,1003.57
2023-04-28T01:50:12.999Z,1003.58
2023-04-28T01:51:12.995Z,1003.61
2023-04-28T01:52:12.916Z,1003.56
2023-04-28T01:53:12.911Z,1003.53
2023-04-28T01:54:12.984Z,1003.53
2023-04-28T01:55:12.863Z,1003.55
2023-04-28T01:56:12.900Z,1003.52
2023-04-28T01:57:12.844Z,1003.56
2023-04-28T01:58:12.817Z,1003.58
2023-04-28T01:59:12.766Z,1003.49
2023-04-28T02:00:12.789Z,1003.49
2023-04-28T02:01:12.871Z,1003.51
2023-04-28T02:02:12.710Z,1003.45
2023-04-28T02:03:12.848Z,1003.47
2023-04-28T02:04:12.735Z,1003.49
2023-04-28T02:05:12.651Z,1003.39
2023-04-28T02:06:12.714Z,1003.47
2023-04-28T02:07:12.617Z,1003.43
2023-04-28T02:08:12.580Z,1003.44
2023-04-28T02:09:12.569Z,1003.41
2023-04-28T02:10:12.557Z,1003.42
2023-04-28T02:11:12.609Z,1003.37
2023-04-28T02:12:12.512Z,1003.37
2023-04-28T02:13:12.499Z,1003.35
2023-04-28T02:14:12.477Z,1003.30
2023-04-28T02:15:12.443Z,1003.33
2023-04-28T02:16:12.538Z,1003.30
2023-04-28T02:17:12.426Z,1003.28
2023-04-28T02:18:12.424Z,1003.25
2023-04-28T02:19:12.395Z,1003.26
2023-04-28T02:20:12.384Z,1003.22
2023-04-28T02:21:12.409Z,1003.24
2023-04-28T02:22:12.390Z,1003.16
2023-04-28T02:23:12.306Z,1003.19
2023-04-28T02:24:12.314Z,1003.15
2023-04-28T02:25:12.263Z,1003.13
2023-04-28T02:26:12.248Z,1003.11
2023-04-28T02:27:12.316Z,1003.07
2023-04-28T02:28:12.212Z,1003.14
2023-04-28T02:29:12.252Z,1003.08
2023-04-28T02:30:12.191Z,1003.10
2023-04-28T02:31:12.219Z,1003.10
2023-04-28T02:32:12.225Z,1003.07
2023-04-28T02:33:12.149Z,1003.04
2023-04-28T02:34:12.117Z,1003.09
2023-04-28T02:35:12.092Z,1003.03
2023-04-28T02:36:12.157Z,1003.06
2023-04-28T02:37:12.116Z,1003.04
2023-04-28T02:38:12.033Z,1003.06
2023-04-28T02:39:12.030Z,1003.06
2023-04-28T02:40:11.980Z,1003.05
2023-04-28T02:41:11.969Z,1003.03
2023-04-28T02:42:12.029Z,1003.10
2023-04-28T02:43:11.939Z,1003.09
2023-04-28T02:44:11.909Z,1003.04
2023-04-28T02:45:11.904Z,1003.06
2023-04-28T02:46:11.932Z,1003.10
2023-04-28T02:47:11.925Z,1003.09
2023-04-28T02:48:11.877Z,1003.04
2023-04-28T02:49:11.809Z,1003.05
2023-04-28T02:50:11.792Z,1003.01
2023-04-28T02:51:11.759Z,1003.01
2023-04-28T02:52:11.751Z,1003.04
2023-04-28T02:53:11.784Z,1003.01
2023-04-28T02:54:11.726Z,1002.96
2023-04-28T02:55:11.699Z,1002.96
2023-04-28T02:56:11.699Z,1002.95
2023-04-28T02:57:11.662Z,1002.97
2023-04-28T02:58:11.722Z,1002.93
2023-04-28T02:59:11.643Z,1002.98
2023-04-28T03:00:11.629Z,1002.92
2023-04-28T03:01:11.718Z,1002.92
2023-04-28T03:02:11.593Z,1002.87
2023-04-28T03:03:11.755Z,1002.93
2023-04-28T03:04:11.705Z,1002.93
2023-04-28T03:05:11.509Z,1002.92
2023-04-28T03:06:11.506Z,1002.89
2023-04-28T03:07:11.475Z,1002.90
2023-04-28T03:08:11.517Z,1002.95
2023-04-28T03:09:11.464Z,1002.92
2023-04-28T03:10:11.437Z,1002.92
2023-04-28T03:11:11.429Z,1002.92
2023-04-28T03:12:11.435Z,1002.87
2023-04-28T03:13:11.451Z,1002.88
2023-04-28T03:14:12.419Z,1002.91
2023-04-28T03:15:13.456Z,1002.91
2023-04-28T03:16:11.450Z,1002.88
2023-04-28T03:17:11.464Z,1002.85
2023-04-28T03:18:11.338Z,1002.82
2023-04-28T03:19:11.405Z,1002.81
2023-04-28T03:20:11.268Z,1002.80
2023-04-28T03:21:11.543Z,1002.70
2023-04-28T03:22:11.197Z,1002.70
2023-04-28T03:23:11.231Z,1002.68
2023-04-28T03:24:11.226Z,1002.63
2023-04-28T03:25:11.128Z,1002.67
2023-04-28T03:26:11.129Z,1002.62
2023-04-28T03:27:11.078Z,1002.59
2023-04-28T03:28:11.049Z,1002.65
2023-04-28T03:29:11.104Z,1002.62
2023-04-28T03:30:11.017Z,1002.61
2023-04-28T03:31:11.002Z,1002.57
2023-04-28T03:32:11.209Z,1002.60
2023-04-28T03:33:11.150Z,1002.58
2023-04-28T03:34:11.024Z,1002.57
2023-04-28T03:35:10.915Z,1002.50
2023-04-28T03:36:10.895Z,1002.48
2023-04-28T03:37:10.893Z,1002.53
2023-04-28T03:38:10.857Z,1002.53
2023-04-28T03:39:10.899Z,1002.49
2023-04-28T03:40:10.812Z,1002.46
2023-04-28T03:41:10.841Z,1002.46
2023-04-28T03:42:10.777Z,1002.39
2023-04-28T03:43:10.752Z,1002.44
2023-04-28T03:44:10.778Z,1002.43
2023-04-28T03:45:10.718Z,1002.39
2023-04-28T03:46:10.717Z,1002.38
2023-04-28T03:47:10.658Z,1002.36
2023-04-28T03:48:10.720Z,1002.31
2023-04-28T03:49:11.326Z,1002.33
2023-04-28T03:50:10.604Z,1002.32
2023-04-28T03:51:10.667Z,1002.35
2023-04-28T03:52:10.572Z,1002.28
2023-04-28T03:53:10.570Z,1002.27
2023-04-28T03:54:10.542Z,1002.27
2023-04-28T03:55:10.601Z,1002.26
2023-04-28T03:56:10.522Z,1002.23
2023-04-28T03:57:10.487Z,1002.20
2023-04-28T03:58:10.465Z,1002.26
2023-04-28T03:59:10.449Z,1002.23
2023-04-28T04:00:10.441Z,1002.20
2023-04-28T04:01:10.504Z,1002.18
2023-04-28T04:02:10.416Z,1002.21
2023-04-28T04:03:10.608Z,1002.15
2023-04-28T04:04:10.547Z,1002.21
2023-04-28T04:05:10.500Z,1002.21
2023-04-28T04:06:10.331Z,1002.18
2023-04-28T04:07:10.304Z,1002.17
2023-04-28T04:08:10.250Z,1002.16
2023-04-28T04:09:10.252Z,1002.21
2023-04-28T04:10:10.242Z,1002.18
2023-04-28T04:11:10.278Z,1002.16
2023-04-28T04:12:10.211Z,1002.15
2023-04-28T04:13:10.200Z,1002.19
2023-04-28T04:14:10.159Z,1002.16
2023-04-28T04:15:10.153Z,1002.21
2023-04-28T04:16:10.152Z,1002.15
2023-04-28T04:17:10.165Z,1002.19
2023-04-28T04:18:10.110Z,1002.15
2023-04-28T04:19:10.024Z,1002.19
2023-04-28T04:20:10.001Z,1002.14
2023-04-28T04:21:09.983Z,1002.14
2023-04-28T04:22:10.009Z,1002.15
2023-04-28T04:23:09.929Z,1002.07
2023-04-28T04:24:09.888Z,1002.14
2023-04-28T04:25:09.891Z,1002.13
2023-04-28T04:26:09.868Z,1002.12
2023-04-28T04:27:09.879Z,1002.08
2023-04-28T04:28:09.790Z,1002.03
2023-04-28T04:29:09.776Z,1001.99
2023-04-28T04:30:09.907Z,1002.03
2023-04-28T04:31:09.802Z,1001.93
2023-04-28T04:32:09.762Z,1001.91
2023-04-28T04:33:09.868Z,1001.89
2023-04-28T04:34:09.644Z,1001.90
2023-04-28T04:35:09.631Z,1001.95
2023-04-28T04:36:09.616Z,1001.90
2023-04-28T04:37:09.676Z,1001.91
2023-04-28T04:38:09.591Z,1001.91
2023-04-28T04:39:09.591Z,1001.84
2023-04-28T04:40:09.520Z,1001.82
2023-04-28T04:41:09.510Z,1001.82
2023-04-28T04:42:23.311Z,1001.78
2023-04-28T04:43:10.473Z,1001.78
2023-04-28T04:44:09.484Z,1001.83
2023-04-28T04:45:09.409Z,1001.76
2023-04-28T04:46:09.400Z,1001.80
2023-04-28T04:47:09.407Z,1001.86
2023-04-28T04:48:09.513Z,1001.88
2023-04-28T04:49:09.367Z,1001.79
2023-04-28T04:50:09.313Z,1001.79
2023-04-28T04:51:09.244Z,1001.81
2023-04-28T04:52:09.225Z,1001.78
2023-04-28T04:53:13.157Z,1001.78
2023-04-28T04:54:10.228Z,1001.79
2023-04-28T04:55:09.174Z,1001.76
2023-04-28T04:56:09.130Z,1001.76
2023-04-28T04:57:09.103Z,1001.77
2023-04-28T04:58:09.129Z,1001.76
2023-04-28T04:59:09.053Z,1001.77
2023-04-28T05:00:09.051Z,1001.79
2023-04-28T05:01:09.268Z,1001.76
2023-04-28T05:02:09.004Z,1001.79
2023-04-28T05:03:09.065Z,1001.83
2023-04-28T05:04:09.168Z,1001.81
2023-04-28T05:05:20.359Z,1001.75
2023-04-28T05:06:09.866Z,1001.81
2023-04-28T05:07:08.918Z,1001.77
2023-04-28T05:08:08.900Z,1001.83
2023-04-28T05:09:08.809Z,1001.74
2023-04-28T05:10:08.779Z,1001.80
2023-04-28T05:11:08.883Z,1001.77
2023-04-28T05:12:08.719Z,1001.77
2023-04-28T05:13:08.773Z,1001.79
2023-04-28T05:14:08.669Z,1001.79
2023-04-28T05:15:08.635Z,1001.81
2023-04-28T05:16:08.630Z,1001.78
2023-04-28T05:17:08.647Z,1001.81
2023-04-28T05:18:08.614Z,1001.80
2023-04-28T05:19:08.588Z,1001.82
2023-04-28T05:20:08.524Z,1001.83
2023-04-28T05:21:08.485Z,1001.83
2023-04-28T05:22:08.502Z,1001.85
2023-04-28T05:23:08.440Z,1001.81
2023-04-28T05:24:08.388Z,1001.78
2023-04-28T05:25:08.375Z,1001.81
2023-04-28T05:26:08.365Z,1001.80
2023-04-28T05:27:08.410Z,1001.73
2023-04-28T05:28:08.323Z,1001.76
2023-04-28T05:29:08.250Z,1001.72
2023-04-28T05:30:08.501Z,1001.75
2023-04-28T05:31:08.190Z,1001.71
2023-04-28T05:32:08.368Z,1001.68
2023-04-28T05:33:08.211Z,1001.66
2023-04-28T05:34:09.741Z,1001.67
2023-04-28T05:35:08.089Z,1001.67
2023-04-28T05:36:08.112Z,1001.66
2023-04-28T05:37:08.050Z,1001.65
2023-04-28T05:38:07.970Z,1001.60
2023-04-28T05:39:08.077Z,1001.57
2023-04-28T05:40:07.910Z,1001.60
2023-04-28T05:41:07.910Z,1001.61
2023-04-28T05:42:07.919Z,1001.57
2023-04-28T05:43:07.803Z,1001.59
2023-04-28T05:44:07.814Z,1001.66
2023-04-28T05:45:07.757Z,1001.68
2023-04-28T05:46:14.909Z,1001.61
2023-04-28T05:47:08.759Z,1001.61
2023-04-28T05:48:07.766Z,1001.63
2023-04-28T05:49:07.600Z,1001.62
2023-04-28T05:50:07.583Z,1001.63
2023-04-28T05:51:07.527Z,1001.68
2023-04-28T05:52:07.535Z,1001.63
2023-04-28T05:53:07.452Z,1001.65
2023-04-28T05:54:07.425Z,1001.63
2023-04-28T05:55:07.379Z,1001.63
2023-04-28T05:56:07.322Z,1001.64
2023-04-28T05:57:07.470Z,1001.69
2023-04-28T05:58:07.311Z,1001.64
2023-04-28T05:59:07.202Z,1001.67
2023-04-28T06:00:07.198Z,1001.70
2023-04-28T06:01:07.144Z,1001.70
2023-04-28T06:02:07.239Z,1001.67
2023-04-28T06:03:07.299Z,1001.67
2023-04-28T06:04:07.223Z,1001.64
2023-04-28T06:05:07.078Z,1001.63
2023-04-28T06:06:10.015Z,1001.63
2023-04-28T06:07:06.914Z,1001.58
2023-04-28T06:08:06.866Z,1001.64
2023-04-28T06:09:06.903Z,1001.60
2023-04-28T06:10:06.788Z,1001.64
2023-04-28T06:11:06.780Z,1001.62
2023-04-28T06:12:06.717Z,1001.59
2023-04-28T06:13:06.853Z,1001.60
2023-04-28T06:14:06.621Z,1001.60
2023-04-28T06:15:06.612Z,1001.57
2023-04-28T06:16:06.560Z,1001.55
2023-04-28T06:17:06.592Z,1001.57
2023-04-28T06:18:06.602Z,1001.55
2023-04-28T06:19:06.525Z,1001.50
2023-04-28T06:20:06.400Z,1001.52
2023-04-28T06:21:06.353Z,1001.56
2023-04-28T06:22:06.378Z,1001.53
2023-04-28T06:23:06.270Z,1001.58
2023-04-28T06:24:06.222Z,1001.56
2023-04-28T06:25:06.200Z,1001.56
2023-04-28T06:26:06.168Z,1001.54
2023-04-28T06:27:06.168Z,1001.57
2023-04-28T06:28:06.076Z,1001.57
2023-04-28T06:29:06.089Z,1001.58
2023-04-28T06:30:05.985Z,1001.58
2023-04-28T06:31:05.980Z,1001.53
2023-04-28T06:32:05.996Z,1001.57
2023-04-28T06:33:05.933Z,1001.62
2023-04-28T06:34:05.914Z,1001.53
2023-04-28T06:35:05.803Z,1001.57
2023-04-28T06:36:05.780Z,1001.52
2023-04-28T06:37:05.750Z,1001.55
2023-04-28T06:38:05.715Z,1001.59
2023-04-28T06:39:05.738Z,1001.58
2023-04-28T06:40:05.692Z,1001.58
2023-04-28T06:41:05.617Z,1001.57
2023-04-28T06:42:05.517Z,1001.57
2023-04-28T06:43:05.490Z,1001.56
2023-04-28T06:44:05.544Z,1001.53
2023-04-28T06:45:05.437Z,1001.50
2023-04-28T06:46:05.364Z,1001.52
2023-04-28T06:47:05.352Z,1001.47
2023-04-28T06:48:05.309Z,1001.52
2023-04-28T06:49:05.306Z,1001.48
2023-04-28T06:50:05.207Z,1001.49
2023-04-28T06:51:05.158Z,1001.44
2023-04-28T06:52:05.120Z,1001.47
2023-04-28T06:53:05.070Z,1001.44
2023-04-28T06:54:05.112Z,1001.44
2023-04-28T06:55:04.979Z,1001.33
2023-04-28T06:56:04.980Z,1001.39
2023-04-28T06:57:04.919Z,1001.40
2023-04-28T06:58:04.875Z,1001.41
2023-04-28T06:59:04.918Z,1001.41
2023-04-28T07:00:04.826Z,1001.41
2023-04-28T07:01:04.894Z,1001.42
2023-04-28T07:02:04.749Z,1001.40
2023-04-28T07:03:04.909Z,1001.37
2023-04-28T07:04:04.827Z,1001.32
2023-04-28T07:05:04.628Z,1001.33
2023-04-28T07:06:04.661Z,1001.36
2023-04-28T07:07:04.548Z,1001.35
2023-04-28T07:08:04.431Z,1001.36
2023-04-28T07:09:04.519Z,1001.32
2023-04-28T07:10:04.361Z,1001.28
2023-04-28T07:11:04.738Z,1001.28
2023-04-28T07:12:04.238Z,1001.30
2023-04-28T07:13:04.196Z,1001.21
2023-04-28T07:14:04.187Z,1001.23
2023-04-28T07:15:04.103Z,1001.19
2023-04-28T07:16:04.141Z,1001.18
2023-04-28T07:17:04.026Z,1001.21
2023-04-28T07:18:03.997Z,1001.18
2023-04-28T07:19:03.948Z,1001.12
2023-04-28T07:20:03.941Z,1001.14
2023-04-28T07:21:05.382Z,1001.12
2023-04-28T07:22:03.778Z,1001.13
2023-04-28T07:23:03.734Z,1001.12
2023-04-28T07:24:03.681Z,1001.09
2023-04-28T07:25:03.695Z,1001.08
2023-04-28T07:26:03.572Z,1001.07
2023-04-28T07:27:03.530Z,1001.06
2023-04-28T07:28:03.505Z,1001.05
2023-04-28T07:29:03.428Z,1001.04
2023-04-28T07:30:11.905Z,1001.08
2023-04-28T07:31:04.329Z,1001.10
2023-04-28T07:32:04.733Z,1001.07
2023-04-28T07:33:03.314Z,1001.03
2023-04-28T07:34:03.168Z,1001.05
2023-04-28T07:35:03.103Z,1001.07
2023-04-28T07:36:03.051Z,1001.03
2023-04-28T07:37:03.009Z,1001.04
2023-04-28T07:38:03.148Z,1001.05
2023-04-28T07:39:02.878Z,1001.03
2023-04-28T07:40:02.838Z,1001.02
2023-04-28T07:41:02.759Z,1000.97
2023-04-28T07:42:02.764Z,1001.00
2023-04-28T07:43:02.769Z,1001.00
2023-04-28T07:44:02.612Z,1001.02
2023-04-28T07:45:02.555Z,1000.99
2023-04-28T07:46:02.532Z,1001.05
2023-04-28T07:47:02.424Z,1001.00
2023-04-28T07:48:02.472Z,1001.01
2023-04-28T07:49:02.346Z,1001.06
2023-04-28T07:50:02.307Z,1001.01
2023-04-28T07:51:02.300Z,1001.06
2023-04-28T07:52:02.178Z,1001.06
2023-04-28T07:53:02.099Z,1001.02
2023-04-28T07:54:02.061Z,1001.03
2023-04-28T07:55:02.020Z,1001.01
2023-04-28T07:56:02.028Z,1001.01
2023-04-28T07:57:01.871Z,1001.08
2023-04-28T07:58:01.833Z,1001.03
2023-04-28T07:59:01.768Z,1001.05
2023-04-28T08:00:01.717Z,1001.02
2023-04-28T08:01:01.738Z,1001.07
2023-04-28T08:02:01.674Z,1001.10
2023-04-28T08:03:01.719Z,1001.08
2023-04-28T08:04:01.685Z,1001.05
2023-04-28T08:05:01.700Z,1001.08
2023-04-28T08:06:01.534Z,1001.04
2023-04-28T08:07:01.441Z,1001.00
2023-04-28T08:08:01.319Z,1001.04
2023-04-28T08:09:01.287Z,1001.04
2023-04-28T08:10:01.161Z,1001.09
2023-04-28T08:11:01.112Z,1001.07
2023-04-28T08:12:01.065Z,1001.04
2023-04-28T08:13:01.087Z,1001.08
2023-04-28T08:14:01.061Z,1001.07
2023-04-28T08:15:00.914Z,1001.10
2023-04-28T08:16:01.013Z,1001.04
2023-04-28T08:17:00.811Z,1001.07
2023-04-28T08:18:00.767Z,1001.10
2023-04-28T08:19:00.861Z,1001.05
2023-04-28T08:20:00.764Z,1001.07
2023-04-28T08:21:00.604Z,1001.09
2023-04-28T08:22:00.520Z,1001.08
2023-04-28T08:23:00.520Z,1001.10
2023-04-28T08:24:00.437Z,1001.15
2023-04-28T08:25:00.381Z,1001.20
2023-04-28T08:26:00.354Z,1001.22
2023-04-28T08:27:00.287Z,1001.26
2023-04-28T08:28:00.285Z,1001.27
2023-04-28T08:29:00.241Z,1001.29
2023-04-28T08:30:00.157Z,1001.29
2023-04-28T08:31:00.145Z,1001.25
2023-04-28T08:32:00.040Z,1001.29
2023-04-28T08:32:59.988Z,1001.32
2023-04-28T08:33:59.980Z,1001.26
2023-04-28T08:34:59.868Z,1001.31
2023-04-28T08:35:59.821Z,1001.32
2023-04-28T08:36:59.784Z,1001.33
2023-04-28T08:37:59.762Z,1001.33
2023-04-28T08:38:59.726Z,1001.30
2023-04-28T08:39:59.961Z,1001.33
2023-04-28T08:40:59.985Z,1001.27
2023-04-28T08:41:59.511Z,1001.28
2023-04-28T08:42:59.453Z,1001.27
2023-04-28T08:43:59.545Z,1001.31
2023-04-28T08:44:59.415Z,1001.29
2023-04-28T08:45:59.279Z,1001.33
2023-04-28T08:46:59.498Z,1001.28
2023-04-28T08:47:59.209Z,1001.23
2023-04-28T08:48:59.285Z,1001.20
2023-04-28T08:49:59.168Z,1001.20
2023-04-28T08:50:59.004Z,1001.18
2023-04-28T08:51:58.944Z,1001.21
2023-04-28T08:52:58.946Z,1001.18
2023-04-28T08:54:19.028Z,1001.16
2023-04-28T08:54:59.830Z,1001.11
2023-04-28T08:55:58.743Z,1001.12
2023-04-28T08:56:58.651Z,1001.05
2023-04-28T08:57:58.606Z,1001.04
2023-04-28T08:58:58.542Z,1000.96
2023-04-28T08:59:58.566Z,1001.01
2023-04-28T09:00:58.428Z,1001.00
2023-04-28T09:01:58.414Z,1000.99
2023-04-28T09:02:58.483Z,1000.98
2023-04-28T09:03:58.307Z,1000.97
2023-04-28T09:04:58.470Z,1000.99
2023-04-28T09:05:58.151Z,1000.98
2023-04-28T09:06:58.084Z,1001.02
2023-04-28T09:07:58.109Z,1001.02
2023-04-28T09:08:58.027Z,1001.03
2023-04-28T09:09:57.937Z,1001.05
2023-04-28T09:10:57.812Z,1001.04
2023-04-28T09:11:57.781Z,1001.01
2023-04-28T09:12:57.711Z,1001.05
2023-04-28T09:13:57.755Z,1000.97
2023-04-28T09:14:57.621Z,1001.01
2023-04-28T09:15:57.544Z,1000.99
2023-04-28T09:16:57.467Z,1000.99
2023-04-28T09:17:57.447Z,1000.93
2023-04-28T09:18:57.401Z,1001.01
2023-04-28T09:19:57.356Z,1000.98
2023-04-28T09:20:57.226Z,1000.95
2023-04-28T09:21:57.244Z,1000.94
2023-04-28T09:22:57.127Z,1000.99
2023-04-28T09:23:57.043Z,1001.02
2023-04-28T09:24:57.048Z,1000.89
2023-04-28T09:25:56.941Z,1001.01
2023-04-28T09:26:56.937Z,1000.93
2023-04-28T09:27:56.836Z,1000.90
2023-04-28T09:28:56.758Z,1000.97
2023-04-28T09:29:56.722Z,1000.93
2023-04-28T09:30:56.599Z,1000.85
2023-04-28T09:31:56.640Z,1000.89
2023-04-28T09:32:56.501Z,1000.91
2023-04-28T09:33:56.457Z,1000.90
2023-04-28T09:34:56.482Z,1000.92
2023-04-28T09:35:56.305Z,1000.89
2023-04-28T09:36:56.260Z,1000.89
2023-04-28T09:37:56.201Z,1000.88
2023-04-28T09:38:57.034Z,1000.90
2023-04-28T09:39:56.131Z,1000.85
2023-04-28T09:40:55.989Z,1000.80
2023-04-28T09:41:55.923Z,1000.83
2023-04-28T09:42:55.842Z,1000.83
2023-04-28T09:43:55.804Z,1000.82
2023-04-28T09:44:55.763Z,1000.81
2023-04-28T09:45:55.746Z,1000.74
2023-04-28T09:46:55.579Z,1000.78
2023-04-28T09:47:55.521Z,1000.77
2023-04-28T09:48:55.421Z,1000.83
2023-04-28T09:49:55.386Z,1000.80
2023-04-28T09:50:56.379Z,1000.81
2023-04-28T09:51:55.227Z,1000.80
2023-04-28T09:52:55.157Z,1000.83
2023-04-28T09:53:55.094Z,1000.80
2023-04-28T09:54:55.021Z,1000.83
2023-04-28T09:55:54.989Z,1000.80
2023-04-28T09:56:54.952Z,1000.77
2023-04-28T09:57:54.854Z,1000.73
2023-04-28T09:58:54.716Z,1000.78
2023-04-28T09:59:54.638Z,1000.70
2023-04-28T10:00:54.668Z,1000.70
2023-04-28T10:01:54.593Z,1000.64
2023-04-28T10:02:54.474Z,1000.66
2023-04-28T10:03:54.421Z,1000.65
2023-04-28T10:04:54.342Z,1000.59
2023-04-28T10:05:54.208Z,1000.60
2023-04-28T10:06:54.225Z,1000.59
2023-04-28T10:07:53.996Z,1000.56
2023-04-28T10:08:53.900Z,1000.62
2023-04-28T10:09:53.788Z,1000.57
2023-04-28T10:10:53.866Z,1000.58
2023-04-28T10:11:53.621Z,1000.60
2023-04-28T10:12:53.530Z,1000.60
2023-04-28T10:13:53.426Z,1000.61
2023-04-28T10:14:53.318Z,1000.60
2023-04-28T10:15:53.304Z,1000.62
2023-04-28T10:16:53.192Z,1000.57
2023-04-28T10:17:53.091Z,1000.58
2023-04-28T10:18:52.965Z,1000.58
2023-04-28T10:19:52.845Z,1000.58
2023-04-28T10:20:52.735Z,1000.58
2023-04-28T10:21:52.735Z,1000.52
2023-04-28T10:22:52.535Z,1000.56
2023-04-28T10:23:52.445Z,1000.53
2023-04-28T10:24:52.351Z,1000.51
2023-04-28T10:25:52.243Z,1000.50
2023-04-28T10:26:52.233Z,1000.51
2023-04-28T10:27:52.062Z,1000.49
2023-04-28T10:28:52.000Z,1000.46
2023-04-28T10:29:51.875Z,1000.51
2023-04-28T10:30:51.785Z,1000.45
2023-04-28T10:31:51.676Z,1000.45
2023-04-28T10:32:51.665Z,1000.39
2023-04-28T10:33:51.482Z,1000.33
2023-04-28T10:34:51.388Z,1000.33
2023-04-28T10:35:51.304Z,1000.33
2023-04-28T10:36:51.244Z,1000.30
2023-04-28T10:37:51.071Z,1000.30
2023-04-28T10:38:50.974Z,1000.31
2023-04-28T10:39:50.875Z,1000.36
2023-04-28T10:40:50.830Z,1000.28
2023-04-28T10:41:50.690Z,1000.31
2023-04-28T10:42:50.549Z,1000.26
2023-04-28T10:43:50.453Z,1000.30
2023-04-28T10:44:50.376Z,1000.23
2023-04-28T10:45:50.572Z,1000.17
2023-04-28T10:46:50.452Z,1000.16
2023-04-28T10:47:50.086Z,1000.11
2023-04-28T10:48:49.934Z,1000.17
2023-04-28T10:49:49.856Z,1000.11
2023-04-28T10:50:50.743Z,1000.11
2023-04-28T10:51:49.672Z,1000.12
2023-04-28T10:52:49.516Z,1000.13
2023-04-28T10:53:49.410Z,1000.11
2023-04-28T10:54:49.301Z,1000.10
2023-04-28T10:55:49.281Z,1000.07
2023-04-28T10:56:49.078Z,1000.07
2023-04-28T10:57:48.986Z,1000.06
2023-04-28T10:58:48.959Z,1000.05
2023-04-28T10:59:48.781Z,1000.04
2023-04-28T11:00:48.784Z,999.99
2023-04-28T11:01:48.603Z,1000.02
2023-04-28T11:02:48.630Z,1000.04
2023-04-28T11:03:48.557Z,999.98
2023-04-28T11:04:48.446Z,1000.01
2023-04-28T11:05:48.152Z,999.99
2023-04-28T11:06:48.083Z,999.95
2023-04-28T11:07:47.998Z,999.95
2023-04-28T11:08:47.878Z,999.97
2023-04-28T11:09:47.752Z,999.96
2023-04-28T11:10:47.688Z,999.96
2023-04-28T11:11:47.473Z,999.94
2023-04-28T11:12:47.362Z,999.92
2023-04-28T11:13:47.343Z,999.88
2023-04-28T11:14:47.148Z,999.88
2023-04-28T11:15:47.102Z,999.87
2023-04-28T11:16:47.017Z,999.85
2023-04-28T11:17:46.891Z,999.87
2023-04-28T11:18:46.738Z,999.83
2023-04-28T11:19:46.613Z,999.82
2023-04-28T11:20:46.587Z,999.83
2023-04-28T11:21:46.432Z,999.83
2023-04-28T11:22:46.323Z,999.79
2023-04-28T11:23:46.202Z,999.80
2023-04-28T11:24:46.193Z,999.81
2023-04-28T11:25:45.997Z,999.75
2023-04-28T11:26:45.950Z,999.70
2023-04-28T11:27:45.804Z,999.68
2023-04-28T11:28:45.675Z,999.70
2023-04-28T11:29:45.563Z,999.70
2023-04-28T11:30:45.462Z,999.65
2023-04-28T11:31:45.500Z,999.64
2023-04-28T11:32:45.289Z,999.56
2023-04-28T11:33:45.134Z,999.55
2023-04-28T11:34:45.053Z,999.57
2023-04-28T11:35:44.870Z,999.53
2023-04-28T11:36:44.758Z,999.54
2023-04-28T11:37:44.644Z,999.57
2023-04-28T11:38:44.553Z,999.55
2023-04-28T11:39:44.440Z,999.63
2023-04-28T11:40:44.370Z,999.57
2023-04-28T11:41:44.233Z,999.58
2023-04-28T11:42:44.053Z,999.55
2023-04-28T11:43:47.069Z,999.62
2023-04-28T11:44:43.804Z,999.64
2023-04-28T11:45:43.889Z,999.64
2023-04-28T11:46:43.621Z,999.64
2023-04-28T11:47:43.548Z,999.68
2023-04-28T11:48:43.351Z,999.68
2023-04-28T11:49:43.203Z,999.69
2023-04-28T11:50:43.150Z,999.68
2023-04-28T11:51:42.989Z,999.56
2023-04-28T11:52:42.876Z,999.62
2023-04-28T11:53:42.700Z,999.58
2023-04-28T11:54:42.592Z,999.60
2023-04-28T11:55:42.465Z,999.59
2023-04-28T11:56:42.327Z,999.62
2023-04-28T11:57:42.306Z,999.61
2023-04-28T11:58:42.091Z,999.65
2023-04-28T11:59:42.868Z,999.62
2023-04-28T12:00:41.846Z,999.62
2023-04-28T12:01:41.718Z,999.60
2023-04-28T12:02:41.770Z,999.61
2023-04-28T12:03:41.571Z,999.60
2023-04-28T12:04:41.409Z,999.66
2023-04-28T12:05:41.253Z,999.68
2023-04-28T12:06:41.134Z,999.67